St. Margarethen - Festspielgelnde
Wetterdaten: aktuell Mittwoch, 24.07.2019 06:26
Datum Zeit Temp. A. Feuchte A. Regen Wind Richtung Richtung Taupunkt Windchill Windben
24.07.2019 06:26 18,8 C 82 % 0,0 l/m 0,0 km/h (0 Bft) W-SW 246 15,7 C 18,8 C 0,0 km/h (0 Bft)
24.07.2019 05:26 19,2 C 80 % 0,0 l/m 0,0 km/h (0 Bft) SW 226 15,7 C 19,2 C 0,0 km/h (0 Bft)
24.07.2019 04:28 19,8 C 81 % 0,0 l/m 0,0 km/h (0 Bft) W 262 16,4 C 19,8 C 0,0 km/h (0 Bft)
24.07.2019 03:29 20,0 C 79 % 0,0 l/m 0,0 km/h (0 Bft) NO 56 16,2 C 20,0 C 0,0 km/h (0 Bft)
24.07.2019 02:29 20,9 C 76 % 0,0 l/m 0,0 km/h (0 Bft) O-NO 61 16,5 C 20,9 C 0,0 km/h (0 Bft)
24.07.2019 01:31 22,2 C 73 % 0,0 l/m 0,0 km/h (0 Bft) O-NO 57 17,1 C 22,2 C 0,0 km/h (0 Bft)
24.07.2019 00:33 23,2 C 67 % 0,0 l/m 0,0 km/h (0 Bft) O-NO 60 16,7 C 23,2 C 0,0 km/h (0 Bft)
23.07.2019 23:33 24,1 C 60 % 0,0 l/m 0,0 km/h (0 Bft) W-SW 248 15,8 C 24,1 C 0,0 km/h (0 Bft)
23.07.2019 22:35 27,4 C 49 % 0,0 l/m 0,0 km/h (0 Bft) N-NW 335 15,7 C 27,4 C 0,0 km/h (0 Bft)
23.07.2019 21:36 27,9 C 47 % 0,0 l/m 0,0 km/h (0 Bft) N-NO 29 15,5 C 27,9 C 0,0 km/h (0 Bft)
23.07.2019 20:38 29,3 C 44 % 0,0 l/m 0,0 km/h (0 Bft) N 1 15,8 C 29,3 C 0,0 km/h (0 Bft)
23.07.2019 19:40 31,8 C 38 % 0,0 l/m 0,0 km/h (0 Bft) S-SW 211 15,7 C 31,8 C 0,0 km/h (0 Bft)
23.07.2019 18:42 31,1 C 38 % 0,0 l/m 0,0 km/h (0 Bft) NW 326 15,1 C 31,1 C 0,0 km/h (0 Bft)
23.07.2019 17:44 31,1 C 39 % 0,0 l/m 9,3 km/h (2 Bft) N-NW 329 15,5 C 30,9 C 14,5 km/h (3 Bft)
23.07.2019 16:46 30,9 C 39 % 0,0 l/m 7,0 km/h (2 Bft) NW 319 15,3 C 30,9 C 17,7 km/h (3 Bft)
23.07.2019 15:48 31,6 C 39 % 0,0 l/m 5,0 km/h (1 Bft) N-NW 328 15,9 C 31,6 C 14,5 km/h (3 Bft)
23.07.2019 14:49 29,8 C 41 % 0,0 l/m 19,3 km/h (3 Bft) W-NW 300 15,1 C 28,9 C 19,3 km/h (3 Bft)
23.07.2019 13:49 29,1 C 43 % 0,0 l/m 15,6 km/h (3 Bft) W-NW 290 15,2 C 28,2 C 25,7 km/h (4 Bft)
23.07.2019 12:51 28,8 C 44 % 0,0 l/m 10,1 km/h (2 Bft) NW 323 15,3 C 28,4 C 25,7 km/h (4 Bft)
23.07.2019 11:53 28,1 C 45 % 0,0 l/m 6,4 km/h (2 Bft) N 349 15,0 C 28,1 C 12,9 km/h (3 Bft)
23.07.2019 10:55 27,0 C 45 % 0,0 l/m 15,4 km/h (3 Bft) W-NW 290 14,0 C 25,7 C 25,7 km/h (4 Bft)
23.07.2019 09:57 26,3 C 49 % 0,0 l/m 3,6 km/h (1 Bft) NW 319 14,7 C 26,3 C 14,5 km/h (3 Bft)
23.07.2019 08:56 25,1 C 55 % 0,0 l/m 10,2 km/h (2 Bft) W-NW 301 15,4 C 24,2 C 17,7 km/h (3 Bft)
23.07.2019 07:58 23,3 C 61 % 0,0 l/m 9,1 km/h (2 Bft) W-NW 285 15,3 C 22,5 C 14,5 km/h (3 Bft)
23.07.2019 07:00 20,8 C 69 % 0,0 l/m 0,0 km/h (0 Bft) W-SW 238 14,9 C 20,8 C 0,0 km/h (0 Bft)
_ Min-Zeit 05:52 18:09 - 07:00 - - 10:53 05:52 07:00
Minimum _ 18,1 C 37 % - 0,0 km/h (0 Bft) - - 13,5 C 18,1 C 0,0 km/h (0 Bft)
_ Max-Zeit 18:06 05:51 07:00 14:23 - - 01:27 18:06 11:13
Maximum _ 31,9 C 84 % 0,0 l/m 27,1 km/h
W-SW (4 Bft)
- - 17,1 C 31,9 C 37,0 km/h
W-NW (5 Bft)
Durchschnitt _ 25,7 C 56 % #0,0 l/m 3,8 km/h (1 Bft) W-NW - 15,6 C 25,5 C 6,9 km/h (2 Bft)